Terminal Aerodrome Forecast
Issued by NWS Anchorage, AK

Home | Current Version | Previous Version | Text Only | Print | Product List | Glossary On
Versions: 1 2 3 4 5 6 7 8 9 10 11 12 13 14 15 16
000
FTAK31 PANC 061137
TAFANC
TAF
PANC 061137Z 0612/0718 14004KT P6SM -RA BKN060
     FM061800 VRB02KT P6SM BKN070
     FM070100 16011G21KT P6SM -SHRA SCT050 BKN070
     FM071200 16008KT P6SM BKN080=

USA.gov is the U.S. government's official web portal to all federal, state and local government web resources and services.